Terminal Aerodrome Forecast
Issued by NWS

Home | Current Version | Previous Version | Text Only | Print | Product List | Glossary On
Versions: 1 2 3 4 5 6 7 8 9 10 11 12 13 14
000
FTUS45 KLKN 270520
TAFEKO
TAF
KEKO 270520Z 2706/2806 08003KT P6SM FEW080
     FM271100 VRB04KT P6SM -SHRA SCT025 OVC050
     FM271300 25007KT 3SM -SN FEW010 OVC025
     FM271800 30012G22KT P6SM -SHSN VCTS FEW020 BKN030CB
     FM280300 32006KT P6SM FEW100=

USA.gov is the U.S. government's official web portal to all federal, state and local government web resources and services.